createdAt,value
2023-02-19T00:00:21.910Z,0.00
2023-02-19T00:01:22.260Z,0.05
2023-02-19T00:02:21.430Z,0.00
2023-02-19T00:03:21.791Z,0.01
2023-02-19T00:04:22.084Z,0.00
2023-02-19T00:05:22.297Z,0.01
2023-02-19T00:06:21.581Z,0.04
2023-02-19T00:07:22.126Z,0.02
2023-02-19T00:08:22.154Z,0.00
2023-02-19T00:09:22.430Z,0.00
2023-02-19T00:10:21.680Z,0.01
2023-02-19T00:11:21.985Z,0.00
2023-02-19T00:12:22.331Z,0.00
2023-02-19T00:13:21.500Z,0.00
2023-02-19T00:14:21.786Z,0.00
2023-02-19T00:15:22.103Z,0.00
2023-02-19T00:16:21.309Z,0.00
2023-02-19T00:17:21.608Z,0.02
2023-02-19T00:18:21.939Z,0.00
2023-02-19T00:20:22.381Z,0.02
2023-02-19T00:21:21.708Z,0.00
2023-02-19T00:22:22.019Z,0.02
2023-02-19T00:23:21.282Z,0.00
2023-02-19T00:24:22.519Z,0.00
2023-02-19T00:25:22.787Z,0.00
2023-02-19T00:26:22.126Z,0.00
2023-02-19T00:27:21.393Z,0.00
2023-02-19T00:28:21.831Z,0.02
2023-02-19T00:29:23.975Z,0.00
2023-02-19T00:30:22.196Z,0.00
2023-02-19T00:31:22.573Z,0.00
2023-02-19T00:32:22.797Z,0.02
2023-02-19T00:33:22.080Z,0.00
2023-02-19T00:34:21.303Z,0.00
2023-02-19T00:35:22.532Z,0.00
2023-02-19T00:36:22.848Z,0.00
2023-02-19T00:37:21.122Z,0.00
2023-02-19T00:38:21.441Z,0.00
2023-02-19T00:39:22.426Z,0.00
2023-02-19T00:40:21.922Z,0.00
2023-02-19T00:41:21.195Z,0.00
2023-02-19T00:42:21.464Z,0.02
2023-02-19T00:43:21.803Z,0.00
2023-02-19T00:44:21.013Z,0.00
2023-02-19T00:45:21.312Z,0.00
2023-02-19T00:46:22.572Z,0.02
2023-02-19T00:47:21.856Z,0.00
2023-02-19T00:48:22.032Z,0.04
2023-02-19T00:49:22.388Z,0.00
2023-02-19T00:50:21.693Z,0.00
2023-02-19T00:51:20.981Z,0.02
2023-02-19T00:52:22.154Z,0.00
2023-02-19T00:53:21.458Z,0.00
2023-02-19T00:54:21.742Z,0.00
2023-02-19T00:55:20.993Z,0.02
2023-02-19T00:56:21.384Z,0.04
2023-02-19T00:57:22.492Z,0.02
2023-02-19T00:58:20.802Z,0.00
2023-02-19T00:59:21.053Z,0.00
2023-02-19T01:00:21.313Z,0.02
2023-02-19T01:01:21.720Z,0.04
2023-02-19T01:02:20.847Z,0.02
2023-02-19T01:03:21.143Z,0.00
2023-02-19T01:04:21.446Z,0.00
2023-02-19T01:05:20.646Z,0.00
2023-02-19T01:06:20.915Z,0.02
2023-02-19T01:07:21.227Z,0.00
2023-02-19T01:08:21.444Z,0.00
2023-02-19T01:09:21.723Z,0.00
2023-02-19T01:10:21.909Z,0.02
2023-02-19T01:11:21.238Z,0.00
2023-02-19T01:12:21.549Z,0.01
2023-02-19T01:13:20.770Z,0.00
2023-02-19T01:14:21.958Z,0.06
2023-02-19T01:15:21.273Z,0.00
2023-02-19T01:16:20.666Z,0.02
2023-02-19T01:17:20.819Z,0.00
2023-02-19T01:18:21.113Z,0.00
2023-02-19T01:19:21.340Z,0.02
2023-02-19T01:20:20.545Z,0.02
2023-02-19T01:21:20.975Z,0.02
2023-02-19T01:22:22.016Z,0.00
2023-02-19T01:23:21.368Z,0.00
2023-02-19T01:24:20.613Z,0.00
2023-02-19T01:25:21.794Z,0.00
2023-02-19T01:26:22.176Z,0.02
2023-02-19T01:27:21.293Z,0.01
2023-02-19T01:28:20.630Z,0.02
2023-02-19T01:29:21.932Z,0.02
2023-02-19T01:30:22.245Z,0.02
2023-02-19T01:31:21.522Z,0.04
2023-02-19T01:33:21.047Z,0.00
2023-02-19T01:34:20.282Z,0.02
2023-02-19T01:35:20.581Z,0.02
2023-02-19T01:36:20.841Z,0.02
2023-02-19T01:37:21.100Z,0.00
2023-02-19T01:38:20.342Z,0.00
2023-02-19T01:39:21.697Z,0.01
2023-02-19T01:40:20.922Z,0.00
2023-02-19T01:41:20.172Z,0.00
2023-02-19T01:42:20.472Z,0.00
2023-02-19T01:43:21.720Z,0.02
2023-02-19T01:44:21.086Z,0.00
2023-02-19T01:45:20.295Z,0.00
2023-02-19T01:46:20.661Z,0.02
2023-02-19T01:48:20.143Z,0.00
2023-02-19T01:49:20.449Z,0.02
2023-02-19T01:50:20.764Z,0.00
2023-02-19T01:51:21.042Z,0.00
2023-02-19T01:52:20.438Z,0.01
2023-02-19T01:53:20.655Z,0.02
2023-02-19T01:54:20.064Z,0.00
2023-02-19T01:55:20.409Z,0.02
2023-02-19T01:56:20.729Z,0.00
2023-02-19T01:57:20.034Z,0.02
2023-02-19T01:58:20.380Z,0.02
2023-02-19T01:59:20.654Z,0.00
2023-02-19T02:00:19.925Z,0.00
2023-02-19T02:01:20.262Z,0.00
2023-02-19T02:02:20.663Z,0.00
2023-02-19T02:03:19.869Z,0.02
2023-02-19T02:04:20.255Z,0.00
2023-02-19T02:05:21.438Z,0.00
2023-02-19T02:06:20.789Z,0.06
2023-02-19T02:07:21.128Z,0.00
2023-02-19T02:08:20.405Z,0.00
2023-02-19T02:09:21.705Z,0.00
2023-02-19T02:10:19.967Z,0.00
2023-02-19T02:11:20.302Z,0.00
2023-02-19T02:12:19.876Z,0.00
2023-02-19T02:13:20.165Z,0.00
2023-02-19T02:14:20.476Z,0.00
2023-02-19T02:15:19.817Z,0.00
2023-02-19T02:16:20.091Z,0.00
2023-02-19T02:17:21.296Z,0.00
2023-02-19T02:18:20.631Z,0.00
2023-02-19T02:19:19.859Z,0.02
2023-02-19T02:20:20.148Z,0.00
2023-02-19T02:21:20.518Z,0.00
2023-02-19T02:22:19.682Z,0.00
2023-02-19T02:23:19.966Z,0.00
2023-02-19T02:24:20.287Z,0.00
2023-02-19T02:25:20.615Z,0.00
2023-02-19T02:26:19.817Z,0.01
2023-02-19T02:27:20.097Z,0.00
2023-02-19T02:28:20.412Z,0.00
2023-02-19T02:29:20.709Z,0.00
2023-02-19T02:30:20.037Z,0.00
2023-02-19T02:31:20.851Z,0.02
2023-02-19T02:32:19.581Z,0.00
2023-02-19T02:33:20.783Z,0.00
2023-02-19T02:34:20.171Z,0.00
2023-02-19T02:35:20.474Z,0.00
2023-02-19T02:36:20.871Z,0.00
2023-02-19T02:37:20.069Z,0.00
2023-02-19T02:38:20.381Z,0.04
2023-02-19T02:39:19.669Z,0.00
2023-02-19T02:40:21.939Z,0.00
2023-02-19T02:41:20.259Z,0.00
2023-02-19T02:42:19.612Z,0.02
2023-02-19T02:43:19.824Z,0.00
2023-02-19T02:44:21.090Z,0.02
2023-02-19T02:46:19.673Z,0.00
2023-02-19T02:47:20.004Z,0.02
2023-02-19T02:49:19.544Z,0.00
2023-02-19T02:50:19.827Z,0.00
2023-02-19T02:51:20.093Z,0.02
2023-02-19T02:52:20.392Z,0.00
2023-02-19T02:53:20.675Z,0.00
2023-02-19T02:54:19.912Z,0.00
2023-02-19T02:55:19.200Z,0.00
2023-02-19T02:56:20.557Z,0.00
2023-02-19T02:57:20.810Z,0.02
2023-02-19T02:58:20.058Z,0.00
2023-02-19T02:59:19.324Z,0.00
2023-02-19T03:00:19.618Z,0.00
2023-02-19T03:01:20.899Z,0.00
2023-02-19T03:02:19.346Z,0.00
2023-02-19T03:03:20.532Z,0.00
2023-02-19T03:04:19.777Z,0.00
2023-02-19T03:05:20.089Z,0.06
2023-02-19T03:06:19.449Z,0.02
2023-02-19T03:07:19.646Z,0.00
2023-02-19T03:08:19.923Z,0.00
2023-02-19T03:09:20.164Z,0.00
2023-02-19T03:10:19.494Z,0.02
2023-02-19T03:11:19.773Z,0.00
2023-02-19T03:12:20.072Z,0.00
2023-02-19T03:13:19.323Z,0.00
2023-02-19T03:14:19.624Z,0.04
2023-02-19T03:15:19.936Z,0.01
2023-02-19T03:16:20.216Z,0.00
2023-02-19T03:17:20.498Z,0.00
2023-02-19T03:18:19.714Z,0.02
2023-02-19T03:19:18.942Z,0.00
2023-02-19T03:20:20.272Z,0.00
2023-02-19T03:21:19.525Z,0.04
2023-02-19T03:22:20.756Z,0.00
2023-02-19T03:23:20.091Z,0.00
2023-02-19T03:24:19.360Z,0.00
2023-02-19T03:25:19.659Z,0.00
2023-02-19T03:26:18.891Z,0.00
2023-02-19T03:27:19.170Z,0.02
2023-02-19T03:28:20.434Z,0.00
2023-02-19T03:29:18.721Z,0.00
2023-02-19T03:30:19.042Z,0.01
2023-02-19T03:31:19.459Z,0.00
2023-02-19T03:32:19.690Z,0.00
2023-02-19T03:33:18.929Z,0.01
2023-02-19T03:34:25.219Z,0.00
2023-02-19T03:35:19.549Z,0.00
2023-02-19T03:36:19.229Z,0.00
2023-02-19T03:37:19.179Z,0.00
2023-02-19T03:38:19.452Z,0.00
2023-02-19T03:39:18.720Z,0.00
2023-02-19T03:40:19.989Z,0.00
2023-02-19T03:41:19.374Z,0.02
2023-02-19T03:42:19.723Z,0.00
2023-02-19T03:43:20.005Z,0.00
2023-02-19T03:44:19.278Z,0.02
2023-02-19T03:45:19.588Z,0.00
2023-02-19T03:46:19.879Z,0.02
2023-02-19T03:47:20.184Z,0.00
2023-02-19T03:48:19.467Z,0.00
2023-02-19T03:49:18.705Z,0.01
2023-02-19T03:50:19.003Z,0.01
2023-02-19T03:51:19.284Z,0.00
2023-02-19T03:52:19.500Z,0.05
2023-02-19T03:53:19.930Z,0.00
2023-02-19T03:54:19.172Z,0.00
2023-02-19T03:55:19.404Z,0.00
2023-02-19T03:56:19.781Z,0.00
2023-02-19T03:57:19.065Z,0.00
2023-02-19T03:58:18.340Z,0.01
2023-02-19T03:59:19.061Z,0.00
2023-02-19T04:00:18.938Z,0.02
2023-02-19T04:01:19.259Z,0.00
2023-02-19T04:02:19.649Z,0.02
2023-02-19T04:03:18.789Z,0.00
2023-02-19T04:04:19.133Z,0.00
2023-02-19T04:05:18.843Z,0.00
2023-02-19T04:06:18.669Z,0.00
2023-02-19T04:07:18.984Z,0.00
2023-02-19T04:08:19.233Z,0.00
2023-02-19T04:09:19.674Z,0.00
2023-02-19T04:10:19.869Z,0.02
2023-02-19T04:11:18.730Z,0.00
2023-02-19T04:12:19.041Z,0.00
2023-02-19T04:13:18.314Z,0.02
2023-02-19T04:14:18.586Z,0.00
2023-02-19T04:15:18.971Z,0.00
2023-02-19T04:16:18.195Z,0.00
2023-02-19T04:17:19.425Z,0.02
2023-02-19T04:18:18.771Z,0.00
2023-02-19T04:19:19.036Z,0.02
2023-02-19T04:20:18.326Z,0.00
2023-02-19T04:21:18.656Z,0.02
2023-02-19T04:22:18.973Z,0.00
2023-02-19T04:23:19.281Z,0.00
2023-02-19T04:24:18.543Z,0.02
2023-02-19T04:25:18.831Z,0.02
2023-02-19T04:26:19.154Z,0.02
2023-02-19T04:27:18.398Z,0.02
2023-02-19T04:28:18.672Z,0.00
2023-02-19T04:29:18.924Z,0.00
2023-02-19T04:30:18.212Z,0.06
2023-02-19T04:31:18.497Z,0.00
2023-02-19T04:32:18.911Z,0.00
2023-02-19T04:33:17.966Z,0.02
2023-02-19T04:34:18.256Z,0.00
2023-02-19T04:35:18.535Z,0.00
2023-02-19T04:36:18.828Z,0.00
2023-02-19T04:37:18.086Z,0.00
2023-02-19T04:38:18.676Z,0.00
2023-02-19T04:39:18.636Z,0.04
2023-02-19T04:40:18.854Z,0.02
2023-02-19T04:41:20.187Z,0.00
2023-02-19T04:42:19.456Z,0.00
2023-02-19T04:43:18.820Z,0.02
2023-02-19T04:44:18.074Z,0.00
2023-02-19T04:45:19.293Z,0.00
2023-02-19T04:46:19.641Z,0.00
2023-02-19T04:47:18.964Z,0.00
2023-02-19T04:48:19.188Z,0.02
2023-02-19T04:49:18.554Z,0.00
2023-02-19T04:50:17.811Z,0.02
2023-02-19T04:51:18.102Z,0.02
2023-02-19T04:52:19.356Z,0.00
2023-02-19T04:53:18.628Z,0.02
2023-02-19T04:54:18.893Z,0.02
2023-02-19T04:55:18.466Z,0.00
2023-02-19T04:56:18.534Z,0.00
2023-02-19T04:57:18.722Z,0.02
2023-02-19T04:58:18.063Z,0.02
2023-02-19T04:59:18.366Z,0.00
2023-02-19T05:00:17.578Z,0.00
2023-02-19T05:01:18.972Z,0.00
2023-02-19T05:02:19.117Z,0.00
2023-02-19T05:03:18.454Z,0.00
2023-02-19T05:04:18.692Z,0.02
2023-02-19T05:05:18.916Z,0.00
2023-02-19T05:06:18.237Z,0.00
2023-02-19T05:07:18.274Z,0.02
2023-02-19T05:08:17.778Z,0.00
2023-02-19T05:09:19.004Z,0.00
2023-02-19T05:10:18.363Z,0.00
2023-02-19T05:11:17.611Z,0.00
2023-02-19T05:12:17.883Z,0.00
2023-02-19T05:13:18.452Z,0.00
2023-02-19T05:14:17.438Z,0.02
2023-02-19T05:16:19.065Z,0.00
2023-02-19T05:17:18.253Z,0.00
2023-02-19T05:19:17.948Z,0.00
2023-02-19T05:20:18.188Z,0.00
2023-02-19T05:21:17.461Z,0.02
2023-02-19T05:22:18.723Z,0.00
2023-02-19T05:23:19.015Z,0.00
2023-02-19T05:24:17.377Z,0.00
2023-02-19T05:25:17.693Z,0.02
2023-02-19T05:26:18.085Z,0.02
2023-02-19T05:27:17.243Z,0.02
2023-02-19T05:28:17.551Z,0.02
2023-02-19T05:29:17.932Z,0.00
2023-02-19T05:30:17.200Z,0.00
2023-02-19T05:31:17.662Z,0.00
2023-02-19T05:32:17.763Z,0.00
2023-02-19T05:33:18.058Z,0.00
2023-02-19T05:34:17.331Z,0.02
2023-02-19T05:35:17.600Z,0.00
2023-02-19T05:36:17.907Z,0.02
2023-02-19T05:37:17.146Z,0.00
2023-02-19T05:38:18.373Z,0.00
2023-02-19T05:39:18.672Z,0.00
2023-02-19T05:40:17.973Z,0.00
2023-02-19T05:41:17.261Z,0.00
2023-02-19T05:42:18.269Z,0.02
2023-02-19T05:43:17.842Z,0.06
2023-02-19T05:44:17.112Z,0.02
2023-02-19T05:45:17.427Z,0.05
2023-02-19T05:46:18.665Z,0.02
2023-02-19T05:47:17.929Z,0.02
2023-02-19T05:48:17.758Z,0.01
2023-02-19T05:49:17.547Z,0.02
2023-02-19T05:50:17.848Z,0.00
2023-02-19T05:51:18.080Z,0.00
2023-02-19T05:52:17.419Z,0.02
2023-02-19T05:53:17.712Z,0.00
2023-02-19T05:54:17.504Z,0.00
2023-02-19T05:55:17.277Z,0.00
2023-02-19T05:56:17.548Z,0.02
2023-02-19T05:57:16.815Z,0.02
2023-02-19T05:58:17.143Z,0.02
2023-02-19T05:59:17.458Z,0.01
2023-02-19T06:00:18.242Z,0.01
2023-02-19T06:01:17.938Z,0.01
2023-02-19T06:02:18.237Z,0.03
2023-02-19T06:03:17.584Z,0.03
2023-02-19T06:04:16.833Z,0.03
2023-02-19T06:05:17.161Z,0.03
2023-02-19T06:06:17.599Z,0.02
2023-02-19T06:07:17.650Z,0.03
2023-02-19T06:08:17.003Z,0.04
2023-02-19T06:09:17.282Z,0.04
2023-02-19T06:10:18.568Z,0.20
2023-02-19T06:11:17.837Z,0.10
2023-02-19T06:12:17.330Z,0.08
2023-02-19T06:13:17.893Z,0.11
2023-02-19T06:14:16.730Z,0.12
2023-02-19T06:15:17.961Z,0.13
2023-02-19T06:16:17.333Z,0.14
2023-02-19T06:17:16.594Z,0.15
2023-02-19T06:18:16.928Z,0.15
2023-02-19T06:19:17.177Z,0.18
2023-02-19T06:20:17.473Z,0.23
2023-02-19T06:21:16.718Z,0.30
2023-02-19T06:22:17.946Z,0.33
2023-02-19T06:23:17.631Z,0.34
2023-02-19T06:24:16.538Z,0.36
2023-02-19T06:25:16.835Z,0.46
2023-02-19T06:26:17.128Z,0.66
2023-02-19T06:27:17.334Z,0.78
2023-02-19T06:28:16.698Z,0.97
2023-02-19T06:29:17.057Z,1.22
2023-02-19T06:30:17.340Z,1.46
2023-02-19T06:31:16.734Z,1.93
2023-02-19T06:32:17.932Z,2.32
2023-02-19T06:33:18.140Z,2.58
2023-02-19T06:34:17.400Z,2.76
2023-02-19T06:35:17.302Z,3.09
2023-02-19T06:36:17.144Z,3.45
2023-02-19T06:37:16.342Z,3.62
2023-02-19T06:38:16.624Z,5.35
2023-02-19T06:39:16.903Z,6.48
2023-02-19T06:40:17.216Z,7.61
2023-02-19T06:41:16.553Z,8.13
2023-02-19T06:42:16.774Z,8.34
2023-02-19T06:43:17.047Z,9.72
2023-02-19T06:44:16.283Z,11.74
2023-02-19T06:45:16.586Z,12.70
2023-02-19T06:46:16.926Z,13.69
2023-02-19T06:47:16.164Z,13.11
2023-02-19T06:48:16.563Z,12.57
2023-02-19T06:49:16.709Z,12.16
2023-02-19T06:50:17.022Z,11.05
2023-02-19T06:51:17.205Z,10.74
2023-02-19T06:52:16.687Z,11.09
2023-02-19T06:53:16.861Z,11.75
2023-02-19T06:54:16.126Z,11.48
2023-02-19T06:55:17.378Z,12.23
2023-02-19T06:56:16.736Z,13.37
2023-02-19T06:57:15.965Z,14.27
2023-02-19T06:58:16.275Z,13.21
2023-02-19T06:59:16.531Z,13.72
2023-02-19T07:00:16.796Z,12.54
2023-02-19T07:01:16.144Z,13.65
2023-02-19T07:02:16.335Z,11.57
2023-02-19T07:03:16.707Z,11.22
2023-02-19T07:04:16.926Z,11.45
2023-02-19T07:05:16.117Z,11.91
2023-02-19T07:06:16.392Z,11.40
2023-02-19T07:07:16.672Z,12.78
2023-02-19T07:08:15.892Z,12.60
2023-02-19T07:09:16.585Z,14.64
2023-02-19T07:10:16.451Z,13.00
2023-02-19T07:11:16.710Z,13.22
2023-02-19T07:12:15.955Z,13.86
2023-02-19T07:13:16.214Z,16.11
2023-02-19T07:14:16.503Z,16.19
2023-02-19T07:15:16.144Z,18.02
2023-02-19T07:16:16.058Z,20.75
2023-02-19T07:17:17.258Z,25.95
2023-02-19T07:18:17.546Z,32.83
2023-02-19T07:19:16.984Z,39.64
2023-02-19T07:20:17.045Z,35.94
2023-02-19T07:21:16.885Z,31.76
2023-02-19T07:22:16.656Z,30.44
2023-02-19T07:23:15.894Z,29.97
2023-02-19T07:24:16.173Z,30.73
2023-02-19T07:25:16.478Z,32.70
2023-02-19T07:26:15.702Z,33.08
2023-02-19T07:27:16.053Z,33.81
2023-02-19T07:28:16.383Z,33.53
2023-02-19T07:29:15.580Z,34.96
2023-02-19T07:30:16.856Z,31.04
2023-02-19T07:31:16.264Z,28.79
2023-02-19T07:32:16.554Z,30.51
2023-02-19T07:33:15.744Z,36.60
2023-02-19T07:34:16.027Z,36.15
2023-02-19T07:35:16.309Z,36.63
2023-02-19T07:36:15.589Z,36.64
2023-02-19T07:37:15.879Z,38.82
2023-02-19T07:38:16.189Z,37.08
2023-02-19T07:39:15.429Z,34.25
2023-02-19T07:40:16.651Z,34.44
2023-02-19T07:41:16.030Z,32.34
2023-02-19T07:42:16.342Z,30.34
2023-02-19T07:43:15.622Z,29.75
2023-02-19T07:44:15.948Z,31.97
2023-02-19T07:45:16.258Z,34.65
2023-02-19T07:46:16.467Z,35.60
2023-02-19T07:47:15.847Z,33.05
2023-02-19T07:48:16.144Z,36.89
2023-02-19T07:49:15.397Z,36.63
2023-02-19T07:50:15.760Z,35.85
2023-02-19T07:51:16.968Z,38.49
2023-02-19T07:52:15.277Z,47.34
2023-02-19T07:53:15.595Z,52.86
2023-02-19T07:54:15.907Z,52.42
2023-02-19T07:55:16.232Z,47.44
2023-02-19T07:56:15.508Z,43.49
2023-02-19T07:57:15.800Z,41.71
2023-02-19T07:58:16.123Z,44.24
2023-02-19T07:59:15.368Z,45.45
2023-02-19T08:00:15.680Z,41.91
2023-02-19T08:01:16.033Z,40.78
2023-02-19T08:02:15.252Z,31.05
2023-02-19T08:03:15.634Z,24.33
2023-02-19T08:04:15.906Z,23.48
2023-02-19T08:05:15.144Z,26.86
2023-02-19T08:06:15.483Z,34.24
2023-02-19T08:07:16.689Z,40.70
2023-02-19T08:08:16.033Z,49.34
2023-02-19T08:09:15.260Z,49.04
2023-02-19T08:10:16.528Z,42.62
2023-02-19T08:11:15.868Z,44.44
2023-02-19T08:12:15.159Z,41.62
2023-02-19T08:13:16.368Z,36.46
2023-02-19T08:14:15.723Z,36.44
2023-02-19T08:15:14.996Z,32.41
2023-02-19T08:16:21.815Z,31.65
2023-02-19T08:17:16.669Z,28.10
2023-02-19T08:18:16.810Z,30.27
2023-02-19T08:19:15.113Z,36.34
2023-02-19T08:20:16.357Z,41.36
2023-02-19T08:21:15.697Z,44.23
2023-02-19T08:22:14.971Z,61.06
2023-02-19T08:23:15.293Z,69.78
2023-02-19T08:24:16.517Z,66.80
2023-02-19T08:25:14.807Z,45.79
2023-02-19T08:26:15.120Z,43.13
2023-02-19T08:27:15.438Z,59.88
2023-02-19T08:28:15.822Z,59.74
2023-02-19T08:29:15.036Z,44.35
2023-02-19T08:30:15.416Z,35.40
2023-02-19T08:31:16.001Z,28.37
2023-02-19T08:32:15.046Z,27.70
2023-02-19T08:33:15.229Z,28.61
2023-02-19T08:34:15.573Z,30.82
2023-02-19T08:35:14.817Z,43.75
2023-02-19T08:36:15.101Z,58.99
2023-02-19T08:37:15.370Z,60.31
2023-02-19T08:38:15.603Z,57.66
2023-02-19T08:39:14.952Z,64.95
2023-02-19T08:40:15.320Z,63.02
2023-02-19T08:41:16.523Z,57.78
2023-02-19T08:42:15.786Z,58.86
2023-02-19T08:43:15.156Z,59.34
2023-02-19T08:44:15.461Z,64.96
2023-02-19T08:45:14.715Z,67.07
2023-02-19T08:46:16.433Z,67.85
2023-02-19T08:47:15.308Z,65.06
2023-02-19T08:48:14.604Z,70.07
2023-02-19T08:49:14.875Z,73.28
2023-02-19T08:50:15.177Z,79.11
2023-02-19T08:51:14.891Z,78.76
2023-02-19T08:52:14.756Z,72.05
2023-02-19T08:53:15.072Z,70.88
2023-02-19T08:54:15.376Z,72.63
2023-02-19T08:55:14.653Z,91.61
2023-02-19T08:56:15.000Z,102.29
2023-02-19T08:57:15.263Z,99.05
2023-02-19T08:58:14.543Z,104.98
2023-02-19T08:59:14.852Z,107.63
2023-02-19T09:00:15.148Z,124.63
2023-02-19T09:01:15.738Z,153.15
2023-02-19T09:02:14.753Z,171.75
2023-02-19T09:03:15.014Z,175.52
2023-02-19T09:04:14.246Z,190.21
2023-02-19T09:05:15.542Z,202.56
2023-02-19T09:06:14.857Z,208.02
2023-02-19T09:07:15.178Z,221.73
2023-02-19T09:08:14.439Z,223.63
2023-02-19T09:09:14.732Z,212.85
2023-02-19T09:10:15.056Z,213.82
2023-02-19T09:11:15.233Z,217.06
2023-02-19T09:12:14.622Z,232.68
2023-02-19T09:13:14.908Z,232.81
2023-02-19T09:14:14.176Z,229.78
2023-02-19T09:15:15.424Z,257.22
2023-02-19T09:16:14.757Z,240.33
2023-02-19T09:17:15.067Z,219.29
2023-02-19T09:18:14.317Z,188.22
2023-02-19T09:19:14.633Z,186.37
2023-02-19T09:20:14.899Z,187.89
2023-02-19T09:21:14.263Z,191.61
2023-02-19T09:22:14.464Z,201.43
2023-02-19T09:23:14.814Z,180.93
2023-02-19T09:24:14.054Z,154.00
2023-02-19T09:25:14.322Z,141.69
2023-02-19T09:26:15.626Z,129.72
2023-02-19T09:27:15.940Z,162.80
2023-02-19T09:28:14.261Z,159.09
2023-02-19T09:29:14.611Z,133.00
2023-02-19T09:30:14.984Z,131.97
2023-02-19T09:31:14.718Z,135.26
2023-02-19T09:32:14.468Z,127.42
2023-02-19T09:33:14.731Z,145.11
2023-02-19T09:34:14.015Z,159.76
2023-02-19T09:35:14.291Z,180.28
2023-02-19T09:36:14.571Z,196.05
2023-02-19T09:37:14.842Z,205.62
2023-02-19T09:38:14.081Z,209.14
2023-02-19T09:39:14.398Z,202.80
2023-02-19T09:40:14.773Z,209.24
2023-02-19T09:41:13.918Z,224.51
2023-02-19T09:42:14.196Z,210.66
2023-02-19T09:43:14.482Z,202.63
2023-02-19T09:44:14.760Z,207.14
2023-02-19T09:45:14.013Z,218.03
2023-02-19T09:46:14.416Z,234.15
2023-02-19T09:47:14.573Z,232.72
2023-02-19T09:48:13.842Z,233.84
2023-02-19T09:49:14.142Z,240.55
2023-02-19T09:50:14.521Z,226.53
2023-02-19T09:51:13.692Z,224.18
2023-02-19T09:52:13.981Z,244.01
2023-02-19T09:53:15.201Z,228.72
2023-02-19T09:54:15.462Z,209.22
2023-02-19T09:55:14.732Z,200.87
2023-02-19T09:56:14.087Z,200.49
2023-02-19T09:57:14.390Z,216.38
2023-02-19T09:58:13.614Z,214.04
2023-02-19T09:59:13.900Z,220.52
2023-02-19T10:00:14.203Z,214.17
2023-02-19T10:01:14.707Z,223.12
2023-02-19T10:02:13.734Z,246.48
2023-02-19T10:03:14.009Z,239.01
2023-02-19T10:04:15.253Z,237.63
2023-02-19T10:05:13.572Z,205.03
2023-02-19T10:06:14.783Z,168.36
2023-02-19T10:07:14.218Z,134.40
2023-02-19T10:08:14.463Z,95.10
2023-02-19T10:09:14.579Z,91.86
2023-02-19T10:10:14.890Z,115.74
2023-02-19T10:11:14.277Z,121.93
2023-02-19T10:12:13.488Z,128.28
2023-02-19T10:13:13.874Z,106.57
2023-02-19T10:14:14.093Z,83.18
2023-02-19T10:15:14.299Z,112.70
2023-02-19T10:16:13.713Z,125.96
2023-02-19T10:17:17.957Z,128.18
2023-02-19T10:18:14.278Z,131.70
2023-02-19T10:19:13.724Z,163.70
2023-02-19T10:20:14.807Z,181.24
2023-02-19T10:21:14.149Z,182.34
2023-02-19T10:22:13.424Z,172.12
2023-02-19T10:23:13.708Z,153.94
2023-02-19T10:24:14.047Z,121.01
2023-02-19T10:25:13.273Z,104.73
2023-02-19T10:26:13.572Z,107.06
2023-02-19T10:27:13.865Z,133.63
2023-02-19T10:28:14.191Z,169.40
2023-02-19T10:29:13.420Z,210.59
2023-02-19T10:30:13.830Z,235.05
2023-02-19T10:31:14.478Z,231.48
2023-02-19T10:32:13.379Z,219.53
2023-02-19T10:33:13.626Z,191.94
2023-02-19T10:34:13.862Z,164.94
2023-02-19T10:35:14.073Z,165.76
2023-02-19T10:36:13.553Z,174.24
2023-02-19T10:37:13.738Z,177.04
2023-02-19T10:38:14.023Z,189.29
2023-02-19T10:39:13.280Z,188.39
2023-02-19T10:40:14.523Z,192.94
2023-02-19T10:41:13.868Z,204.97
2023-02-19T10:42:13.136Z,202.89
2023-02-19T10:43:14.384Z,199.63
2023-02-19T10:44:14.681Z,173.14
2023-02-19T10:45:13.957Z,138.48
2023-02-19T10:46:14.215Z,104.48
2023-02-19T10:47:13.605Z,89.96
2023-02-19T10:48:14.779Z,81.99
2023-02-19T10:49:13.054Z,72.99
2023-02-19T10:50:13.353Z,70.42
2023-02-19T10:51:14.599Z,67.53
2023-02-19T10:52:13.934Z,61.79
2023-02-19T10:53:14.220Z,64.85
2023-02-19T10:54:14.481Z,60.90
2023-02-19T10:55:14.700Z,49.22
2023-02-19T10:56:13.945Z,48.59
2023-02-19T10:57:13.294Z,54.06
2023-02-19T10:58:13.749Z,62.21
2023-02-19T10:59:13.749Z,74.59
2023-02-19T11:00:13.118Z,76.92
2023-02-19T11:01:13.386Z,70.82
2023-02-19T11:02:14.600Z,59.36
2023-02-19T11:03:13.958Z,44.02
2023-02-19T11:04:13.241Z,53.62
2023-02-19T11:05:14.417Z,71.87
2023-02-19T11:06:12.729Z,93.31
2023-02-19T11:07:13.025Z,129.81
2023-02-19T11:08:13.728Z,193.85
2023-02-19T11:09:13.098Z,261.22
2023-02-19T11:10:14.258Z,300.66
2023-02-19T11:11:13.553Z,318.65
2023-02-19T11:12:12.796Z,333.66
2023-02-19T11:13:13.093Z,361.44
2023-02-19T11:14:13.412Z,300.71
2023-02-19T11:15:12.598Z,237.43
2023-02-19T11:16:13.876Z,221.00
2023-02-19T11:17:14.082Z,223.47
2023-02-19T11:18:14.389Z,235.63
2023-02-19T11:19:13.608Z,242.04
2023-02-19T11:20:13.752Z,220.58
2023-02-19T11:21:14.208Z,195.02
2023-02-19T11:22:13.459Z,159.12
2023-02-19T11:23:13.705Z,155.15
2023-02-19T11:24:13.963Z,177.85
2023-02-19T11:25:14.252Z,203.84
2023-02-19T11:26:13.982Z,250.59
2023-02-19T11:27:13.775Z,315.12
2023-02-19T11:28:14.042Z,361.35
2023-02-19T11:29:14.338Z,355.23
2023-02-19T11:30:14.642Z,329.29
2023-02-19T11:31:14.545Z,301.63
2023-02-19T11:32:13.502Z,277.13
2023-02-19T11:33:13.451Z,246.21
2023-02-19T11:34:14.026Z,255.27
2023-02-19T11:35:12.998Z,261.34
2023-02-19T11:36:17.423Z,258.85
2023-02-19T11:37:12.572Z,240.47
2023-02-19T11:38:13.725Z,235.88
2023-02-19T11:39:13.040Z,238.75
2023-02-19T11:40:13.283Z,264.77
2023-02-19T11:41:13.798Z,272.87
2023-02-19T11:42:13.798Z,277.38
2023-02-19T11:43:14.066Z,286.72
2023-02-19T11:44:13.311Z,299.55
2023-02-19T11:45:13.577Z,310.95
2023-02-19T11:46:12.908Z,326.78
2023-02-19T11:47:13.113Z,366.64
2023-02-19T11:48:13.265Z,437.07
2023-02-19T11:49:13.484Z,452.81
2023-02-19T11:50:12.768Z,468.44
2023-02-19T11:51:13.999Z,476.21
2023-02-19T11:52:13.295Z,472.13
2023-02-19T11:53:13.533Z,478.74
2023-02-19T11:54:12.828Z,495.38
2023-02-19T11:55:12.041Z,507.29
2023-02-19T11:56:13.288Z,507.82
2023-02-19T11:57:12.601Z,509.72
2023-02-19T11:58:13.816Z,503.24
2023-02-19T11:59:12.107Z,490.40
2023-02-19T12:00:13.359Z,477.15
2023-02-19T12:01:13.219Z,479.81
2023-02-19T12:02:13.015Z,467.66
2023-02-19T12:03:13.150Z,468.34
2023-02-19T12:04:12.529Z,448.61
2023-02-19T12:05:12.749Z,428.24
2023-02-19T12:06:13.146Z,447.58
2023-02-19T12:07:13.182Z,451.55
2023-02-19T12:08:13.727Z,433.94
2023-02-19T12:09:13.776Z,400.68
2023-02-19T12:10:13.312Z,371.10
2023-02-19T12:11:13.240Z,308.27
2023-02-19T12:12:12.568Z,265.95
2023-02-19T12:13:12.757Z,252.62
2023-02-19T12:14:12.084Z,249.52
2023-02-19T12:15:13.397Z,244.70
2023-02-19T12:16:12.706Z,250.27
2023-02-19T12:17:11.893Z,280.36
2023-02-19T12:18:13.133Z,303.96
2023-02-19T12:19:12.454Z,303.15
2023-02-19T12:20:11.713Z,271.89
2023-02-19T12:21:12.352Z,266.70
2023-02-19T12:22:12.275Z,323.90
2023-02-19T12:23:16.733Z,289.13
2023-02-19T12:24:11.953Z,279.51
2023-02-19T12:25:12.108Z,284.62
2023-02-19T12:26:13.506Z,288.91
2023-02-19T12:27:11.664Z,288.68
2023-02-19T12:28:11.908Z,316.86
2023-02-19T12:29:12.139Z,364.74
2023-02-19T12:30:12.448Z,370.99
2023-02-19T12:31:11.650Z,390.89
2023-02-19T12:32:12.508Z,470.59
2023-02-19T12:33:12.178Z,511.80
2023-02-19T12:34:12.418Z,489.15
2023-02-19T12:35:11.622Z,441.72
2023-02-19T12:36:13.060Z,395.07
2023-02-19T12:37:13.018Z,378.80
2023-02-19T12:38:12.336Z,375.01
2023-02-19T12:39:11.522Z,340.49
2023-02-19T12:40:12.819Z,325.66
2023-02-19T12:41:12.898Z,336.61
2023-02-19T12:42:13.118Z,326.86
2023-02-19T12:43:11.414Z,333.00
2023-02-19T12:44:11.682Z,332.09
2023-02-19T12:45:12.845Z,313.08
2023-02-19T12:46:13.591Z,294.47
2023-02-19T12:47:12.358Z,300.36
2023-02-19T12:48:12.517Z,302.35
2023-02-19T12:49:12.781Z,288.96
2023-02-19T12:50:12.389Z,268.00
2023-02-19T12:51:13.254Z,262.09
2023-02-19T12:52:13.473Z,243.34
2023-02-19T12:53:12.729Z,221.61
2023-02-19T12:54:14.114Z,218.23
2023-02-19T12:55:11.226Z,212.48
2023-02-19T12:56:11.775Z,212.72
2023-02-19T12:57:12.691Z,242.49
2023-02-19T12:58:16.322Z,265.23
2023-02-19T12:59:12.164Z,275.29
2023-02-19T13:00:13.063Z,253.59
2023-02-19T13:01:11.743Z,236.47
2023-02-19T13:02:12.040Z,240.35
2023-02-19T13:03:11.155Z,253.53
2023-02-19T13:04:11.388Z,260.44
2023-02-19T13:05:12.604Z,234.31